sensor_id;sensor_type;location;lat;lon;timestamp;P1;durP1;ratioP1;P2;durP2;ratioP2
12776;SDS011;6452;41.572;23.732;2023-07-08T00:01:04;8.05;;;6.07;;
12776;SDS011;6452;41.572;23.732;2023-07-08T00:03:30;6.13;;;5.63;;
12776;SDS011;6452;41.572;23.732;2023-07-08T00:05:56;7.15;;;6.47;;
12776;SDS011;6452;41.572;23.732;2023-07-08T00:08:22;6.68;;;5.97;;
12776;SDS011;6452;41.572;23.732;2023-07-08T00:10:48;6.53;;;5.90;;
12776;SDS011;6452;41.572;23.732;2023-07-08T00:13:15;6.75;;;6.15;;
12776;SDS011;6452;41.572;23.732;2023-07-08T00:15:41;7.30;;;6.47;;
12776;SDS011;6452;41.572;23.732;2023-07-08T00:18:14;7.05;;;6.45;;
12776;SDS011;6452;41.572;23.732;2023-07-08T00:20:44;7.13;;;5.63;;
12776;SDS011;6452;41.572;23.732;2023-07-08T00:23:11;7.85;;;7.05;;
12776;SDS011;6452;41.572;23.732;2023-07-08T00:25:38;9.00;;;7.10;;
12776;SDS011;6452;41.572;23.732;2023-07-08T00:28:19;6.80;;;6.15;;
12776;SDS011;6452;41.572;23.732;2023-07-08T00:30:46;9.02;;;6.18;;
12776;SDS011;6452;41.572;23.732;2023-07-08T00:33:13;7.50;;;6.80;;
12776;SDS011;6452;41.572;23.732;2023-07-08T00:35:39;7.25;;;6.55;;
12776;SDS011;6452;41.572;23.732;2023-07-08T00:38:25;7.57;;;6.88;;
12776;SDS011;6452;41.572;23.732;2023-07-08T00:40:54;6.68;;;6.10;;
12776;SDS011;6452;41.572;23.732;2023-07-08T00:43:24;6.45;;;5.85;;
12776;SDS011;6452;41.572;23.732;2023-07-08T00:45:53;7.20;;;6.60;;
12776;SDS011;6452;41.572;23.732;2023-07-08T00:48:33;6.43;;;5.82;;
12776;SDS011;6452;41.572;23.732;2023-07-08T00:50:59;7.32;;;6.68;;
12776;SDS011;6452;41.572;23.732;2023-07-08T00:53:27;7.28;;;6.38;;
12776;SDS011;6452;41.572;23.732;2023-07-08T00:55:54;6.45;;;5.88;;
12776;SDS011;6452;41.572;23.732;2023-07-08T00:58:22;6.82;;;6.22;;
12776;SDS011;6452;41.572;23.732;2023-07-08T01:00:49;6.38;;;5.78;;
12776;SDS011;6452;41.572;23.732;2023-07-08T01:03:16;6.95;;;6.30;;
12776;SDS011;6452;41.572;23.732;2023-07-08T01:05:44;7.20;;;6.55;;
12776;SDS011;6452;41.572;23.732;2023-07-08T01:08:11;7.45;;;6.65;;
12776;SDS011;6452;41.572;23.732;2023-07-08T01:10:38;7.25;;;6.45;;
12776;SDS011;6452;41.572;23.732;2023-07-08T01:13:05;7.50;;;6.80;;
12776;SDS011;6452;41.572;23.732;2023-07-08T01:15:35;7.40;;;6.70;;
12776;SDS011;6452;41.572;23.732;2023-07-08T01:18:07;7.03;;;6.38;;
12776;SDS011;6452;41.572;23.732;2023-07-08T01:20:34;7.22;;;6.53;;
12776;SDS011;6452;41.572;23.732;2023-07-08T01:23:00;6.25;;;5.70;;
12776;SDS011;6452;41.572;23.732;2023-07-08T01:25:26;7.28;;;6.55;;
12776;SDS011;6452;41.572;23.732;2023-07-08T01:27:53;7.28;;;6.57;;
12776;SDS011;6452;41.572;23.732;2023-07-08T01:30:19;8.02;;;7.00;;
12776;SDS011;6452;41.572;23.732;2023-07-08T01:32:49;7.93;;;7.18;;
12776;SDS011;6452;41.572;23.732;2023-07-08T01:35:15;7.90;;;6.80;;
12776;SDS011;6452;41.572;23.732;2023-07-08T01:37:43;8.27;;;6.45;;
12776;SDS011;6452;41.572;23.732;2023-07-08T01:42:41;7.28;;;6.53;;
12776;SDS011;6452;41.572;23.732;2023-07-08T01:45:14;7.13;;;6.47;;
12776;SDS011;6452;41.572;23.732;2023-07-08T01:47:40;8.55;;;7.15;;
12776;SDS011;6452;41.572;23.732;2023-07-08T01:50:07;7.30;;;6.60;;
12776;SDS011;6452;41.572;23.732;2023-07-08T01:52:33;8.05;;;7.30;;
12776;SDS011;6452;41.572;23.732;2023-07-08T01:54:59;7.70;;;6.95;;
12776;SDS011;6452;41.572;23.732;2023-07-08T01:57:25;6.13;;;5.53;;
12776;SDS011;6452;41.572;23.732;2023-07-08T01:59:51;9.73;;;6.80;;
12776;SDS011;6452;41.572;23.732;2023-07-08T02:02:17;7.28;;;6.50;;
12776;SDS011;6452;41.572;23.732;2023-07-08T02:04:43;6.75;;;6.10;;
12776;SDS011;6452;41.572;23.732;2023-07-08T02:07:09;6.85;;;6.15;;
12776;SDS011;6452;41.572;23.732;2023-07-08T02:09:35;7.65;;;6.90;;
12776;SDS011;6452;41.572;23.732;2023-07-08T02:12:01;7.85;;;7.03;;
12776;SDS011;6452;41.572;23.732;2023-07-08T02:14:27;7.68;;;6.88;;
12776;SDS011;6452;41.572;23.732;2023-07-08T02:16:53;8.25;;;7.35;;
12776;SDS011;6452;41.572;23.732;2023-07-08T02:19:19;7.55;;;6.85;;
12776;SDS011;6452;41.572;23.732;2023-07-08T02:21:47;7.03;;;6.30;;
12776;SDS011;6452;41.572;23.732;2023-07-08T02:24:13;7.32;;;6.63;;
12776;SDS011;6452;41.572;23.732;2023-07-08T02:26:42;7.93;;;7.15;;
12776;SDS011;6452;41.572;23.732;2023-07-08T02:29:08;8.20;;;7.40;;
12776;SDS011;6452;41.572;23.732;2023-07-08T02:31:34;8.05;;;7.25;;
12776;SDS011;6452;41.572;23.732;2023-07-08T02:34:00;7.22;;;6.57;;
12776;SDS011;6452;41.572;23.732;2023-07-08T02:36:27;8.23;;;7.43;;
12776;SDS011;6452;41.572;23.732;2023-07-08T02:38:53;7.78;;;7.07;;
12776;SDS011;6452;41.572;23.732;2023-07-08T02:41:19;7.25;;;6.50;;
12776;SDS011;6452;41.572;23.732;2023-07-08T02:43:45;8.75;;;7.85;;
12776;SDS011;6452;41.572;23.732;2023-07-08T02:46:11;7.60;;;6.88;;
12776;SDS011;6452;41.572;23.732;2023-07-08T02:48:36;7.63;;;6.93;;
12776;SDS011;6452;41.572;23.732;2023-07-08T02:51:03;8.05;;;7.13;;
12776;SDS011;6452;41.572;23.732;2023-07-08T02:53:29;7.85;;;7.07;;
12776;SDS011;6452;41.572;23.732;2023-07-08T02:55:55;7.25;;;6.55;;
12776;SDS011;6452;41.572;23.732;2023-07-08T02:58:20;8.75;;;6.90;;
12776;SDS011;6452;41.572;23.732;2023-07-08T03:00:56;7.43;;;6.72;;
12776;SDS011;6452;41.572;23.732;2023-07-08T03:03:26;8.43;;;7.28;;
12776;SDS011;6452;41.572;23.732;2023-07-08T03:05:55;8.82;;;7.63;;
12776;SDS011;6452;41.572;23.732;2023-07-08T03:08:21;8.95;;;6.85;;
12776;SDS011;6452;41.572;23.732;2023-07-08T03:10:48;7.88;;;7.05;;
12776;SDS011;6452;41.572;23.732;2023-07-08T03:13:14;7.65;;;6.95;;
12776;SDS011;6452;41.572;23.732;2023-07-08T03:15:40;7.80;;;7.00;;
12776;SDS011;6452;41.572;23.732;2023-07-08T03:18:05;8.68;;;7.50;;
12776;SDS011;6452;41.572;23.732;2023-07-08T03:20:33;8.32;;;7.53;;
12776;SDS011;6452;41.572;23.732;2023-07-08T03:23:01;8.63;;;7.20;;
12776;SDS011;6452;41.572;23.732;2023-07-08T03:25:28;8.00;;;7.20;;
12776;SDS011;6452;41.572;23.732;2023-07-08T03:27:54;7.00;;;6.30;;
12776;SDS011;6452;41.572;23.732;2023-07-08T03:30:20;7.70;;;7.00;;
12776;SDS011;6452;41.572;23.732;2023-07-08T03:32:46;6.75;;;6.18;;
12776;SDS011;6452;41.572;23.732;2023-07-08T03:35:12;8.32;;;7.47;;
12776;SDS011;6452;41.572;23.732;2023-07-08T03:37:39;7.53;;;6.47;;
12776;SDS011;6452;41.572;23.732;2023-07-08T03:40:07;8.32;;;7.47;;
12776;SDS011;6452;41.572;23.732;2023-07-08T03:42:38;7.65;;;6.85;;
12776;SDS011;6452;41.572;23.732;2023-07-08T03:45:04;8.25;;;7.45;;
12776;SDS011;6452;41.572;23.732;2023-07-08T03:47:31;7.60;;;6.90;;
12776;SDS011;6452;41.572;23.732;2023-07-08T03:49:57;7.55;;;6.85;;
12776;SDS011;6452;41.572;23.732;2023-07-08T03:52:23;7.95;;;7.20;;
12776;SDS011;6452;41.572;23.732;2023-07-08T03:54:49;7.40;;;6.70;;
12776;SDS011;6452;41.572;23.732;2023-07-08T03:57:15;8.05;;;7.25;;
12776;SDS011;6452;41.572;23.732;2023-07-08T03:59:41;7.53;;;6.82;;
12776;SDS011;6452;41.572;23.732;2023-07-08T04:02:08;7.10;;;6.40;;
12776;SDS011;6452;41.572;23.732;2023-07-08T04:04:35;6.28;;;5.68;;
12776;SDS011;6452;41.572;23.732;2023-07-08T04:07:05;7.15;;;6.55;;
12776;SDS011;6452;41.572;23.732;2023-07-08T04:09:31;9.80;;;6.95;;
12776;SDS011;6452;41.572;23.732;2023-07-08T04:11:57;7.15;;;6.43;;
12776;SDS011;6452;41.572;23.732;2023-07-08T04:14:25;6.97;;;6.38;;
12776;SDS011;6452;41.572;23.732;2023-07-08T04:16:55;6.93;;;6.28;;
12776;SDS011;6452;41.572;23.732;2023-07-08T04:19:23;8.70;;;6.68;;
12776;SDS011;6452;41.572;23.732;2023-07-08T04:21:49;7.80;;;7.10;;
12776;SDS011;6452;41.572;23.732;2023-07-08T04:24:17;7.05;;;6.40;;
12776;SDS011;6452;41.572;23.732;2023-07-08T04:26:43;7.30;;;6.63;;
12776;SDS011;6452;41.572;23.732;2023-07-08T04:29:12;6.72;;;6.13;;
12776;SDS011;6452;41.572;23.732;2023-07-08T04:31:38;6.65;;;5.80;;
12776;SDS011;6452;41.572;23.732;2023-07-08T04:34:03;7.75;;;6.43;;
12776;SDS011;6452;41.572;23.732;2023-07-08T04:36:31;6.25;;;5.75;;
12776;SDS011;6452;41.572;23.732;2023-07-08T04:38:57;6.90;;;6.30;;
12776;SDS011;6452;41.572;23.732;2023-07-08T04:41:24;7.35;;;6.57;;
12776;SDS011;6452;41.572;23.732;2023-07-08T04:43:51;7.30;;;6.60;;
12776;SDS011;6452;41.572;23.732;2023-07-08T04:46:19;9.27;;;7.13;;
12776;SDS011;6452;41.572;23.732;2023-07-08T04:48:48;7.72;;;6.82;;
12776;SDS011;6452;41.572;23.732;2023-07-08T04:51:14;6.95;;;6.35;;
12776;SDS011;6452;41.572;23.732;2023-07-08T04:53:40;6.85;;;6.25;;
12776;SDS011;6452;41.572;23.732;2023-07-08T04:56:07;6.78;;;6.07;;
12776;SDS011;6452;41.572;23.732;2023-07-08T04:58:33;8.30;;;6.53;;
12776;SDS011;6452;41.572;23.732;2023-07-08T05:00:58;7.30;;;6.60;;
12776;SDS011;6452;41.572;23.732;2023-07-08T05:03:24;6.68;;;6.10;;
12776;SDS011;6452;41.572;23.732;2023-07-08T05:05:50;7.32;;;6.63;;
12776;SDS011;6452;41.572;23.732;2023-07-08T05:08:16;6.72;;;6.03;;
12776;SDS011;6452;41.572;23.732;2023-07-08T05:10:43;6.50;;;5.90;;
12776;SDS011;6452;41.572;23.732;2023-07-08T05:13:09;7.05;;;6.35;;
12776;SDS011;6452;41.572;23.732;2023-07-08T05:15:35;6.50;;;5.90;;
12776;SDS011;6452;41.572;23.732;2023-07-08T05:18:01;7.50;;;6.03;;
12776;SDS011;6452;41.572;23.732;2023-07-08T05:20:27;7.03;;;6.40;;
12776;SDS011;6452;41.572;23.732;2023-07-08T05:22:58;6.75;;;6.15;;
12776;SDS011;6452;41.572;23.732;2023-07-08T05:25:24;6.65;;;6.05;;
12776;SDS011;6452;41.572;23.732;2023-07-08T05:27:50;9.27;;;6.13;;
12776;SDS011;6452;41.572;23.732;2023-07-08T05:30:17;6.97;;;6.38;;
12776;SDS011;6452;41.572;23.732;2023-07-08T05:32:43;6.40;;;5.80;;
12776;SDS011;6452;41.572;23.732;2023-07-08T05:35:09;5.95;;;5.53;;
12776;SDS011;6452;41.572;23.732;2023-07-08T05:37:35;6.57;;;5.97;;
12776;SDS011;6452;41.572;23.732;2023-07-08T05:40:01;6.47;;;5.88;;
12776;SDS011;6452;41.572;23.732;2023-07-08T05:42:29;6.10;;;5.57;;
12776;SDS011;6452;41.572;23.732;2023-07-08T05:44:56;6.28;;;5.68;;
12776;SDS011;6452;41.572;23.732;2023-07-08T05:47:22;5.88;;;5.38;;
12776;SDS011;6452;41.572;23.732;2023-07-08T05:49:48;6.47;;;5.97;;
12776;SDS011;6452;41.572;23.732;2023-07-08T05:52:14;5.97;;;5.47;;
12776;SDS011;6452;41.572;23.732;2023-07-08T05:54:40;6.63;;;6.03;;
12776;SDS011;6452;41.572;23.732;2023-07-08T05:57:07;5.53;;;5.13;;
12776;SDS011;6452;41.572;23.732;2023-07-08T05:59:34;6.50;;;5.90;;
12776;SDS011;6452;41.572;23.732;2023-07-08T06:02:00;5.68;;;5.18;;
12776;SDS011;6452;41.572;23.732;2023-07-08T06:04:26;5.95;;;5.43;;
12776;SDS011;6452;41.572;23.732;2023-07-08T06:06:52;6.10;;;5.60;;
12776;SDS011;6452;41.572;23.732;2023-07-08T06:09:18;6.07;;;5.57;;
12776;SDS011;6452;41.572;23.732;2023-07-08T06:11:45;5.90;;;5.40;;
12776;SDS011;6452;41.572;23.732;2023-07-08T06:14:11;5.32;;;4.90;;
12776;SDS011;6452;41.572;23.732;2023-07-08T06:16:36;5.97;;;5.50;;
12776;SDS011;6452;41.572;23.732;2023-07-08T06:19:03;5.88;;;5.28;;
12776;SDS011;6452;41.572;23.732;2023-07-08T06:21:29;5.35;;;4.85;;
12776;SDS011;6452;41.572;23.732;2023-07-08T06:23:55;5.88;;;5.32;;
12776;SDS011;6452;41.572;23.732;2023-07-08T06:26:21;5.43;;;4.88;;
12776;SDS011;6452;41.572;23.732;2023-07-08T06:28:47;5.75;;;5.05;;
12776;SDS011;6452;41.572;23.732;2023-07-08T06:31:13;5.50;;;5.10;;
12776;SDS011;6452;41.572;23.732;2023-07-08T06:33:39;5.25;;;4.85;;
12776;SDS011;6452;41.572;23.732;2023-07-08T06:36:05;4.60;;;4.30;;
12776;SDS011;6452;41.572;23.732;2023-07-08T06:38:33;4.97;;;4.50;;
12776;SDS011;6452;41.572;23.732;2023-07-08T06:41:02;6.00;;;5.50;;
12776;SDS011;6452;41.572;23.732;2023-07-08T06:43:28;5.43;;;4.50;;
12776;SDS011;6452;41.572;23.732;2023-07-08T06:45:54;5.85;;;5.32;;
12776;SDS011;6452;41.572;23.732;2023-07-08T06:48:20;5.15;;;4.65;;
12776;SDS011;6452;41.572;23.732;2023-07-08T06:50:46;5.53;;;5.13;;
12776;SDS011;6452;41.572;23.732;2023-07-08T06:53:11;4.93;;;4.53;;
12776;SDS011;6452;41.572;23.732;2023-07-08T06:55:38;6.18;;;5.10;;
12776;SDS011;6452;41.572;23.732;2023-07-08T06:58:04;5.35;;;4.95;;
12776;SDS011;6452;41.572;23.732;2023-07-08T07:00:30;4.88;;;3.88;;
12776;SDS011;6452;41.572;23.732;2023-07-08T07:02:56;4.68;;;4.38;;
12776;SDS011;6452;41.572;23.732;2023-07-08T07:05:22;4.90;;;4.57;;
12776;SDS011;6452;41.572;23.732;2023-07-08T07:07:48;4.75;;;4.35;;
12776;SDS011;6452;41.572;23.732;2023-07-08T07:10:14;4.93;;;4.50;;
12776;SDS011;6452;41.572;23.732;2023-07-08T07:12:40;4.57;;;4.28;;
12776;SDS011;6452;41.572;23.732;2023-07-08T07:15:06;4.32;;;4.03;;
12776;SDS011;6452;41.572;23.732;2023-07-08T07:17:32;4.55;;;4.25;;
12776;SDS011;6452;41.572;23.732;2023-07-08T07:19:58;5.22;;;4.82;;
12776;SDS011;6452;41.572;23.732;2023-07-08T07:22:24;7.03;;;4.15;;
12776;SDS011;6452;41.572;23.732;2023-07-08T07:24:50;4.95;;;4.53;;
12776;SDS011;6452;41.572;23.732;2023-07-08T07:27:16;5.78;;;4.63;;
12776;SDS011;6452;41.572;23.732;2023-07-08T07:29:45;4.13;;;3.83;;
12776;SDS011;6452;41.572;23.732;2023-07-08T07:32:12;3.85;;;3.58;;
12776;SDS011;6452;41.572;23.732;2023-07-08T07:34:38;4.07;;;3.78;;
12776;SDS011;6452;41.572;23.732;2023-07-08T07:37:14;4.00;;;3.70;;
12776;SDS011;6452;41.572;23.732;2023-07-08T07:39:50;3.75;;;3.55;;
12776;SDS011;6452;41.572;23.732;2023-07-08T07:42:16;3.55;;;3.35;;
12776;SDS011;6452;41.572;23.732;2023-07-08T07:44:43;4.07;;;3.78;;
12776;SDS011;6452;41.572;23.732;2023-07-08T07:47:09;4.68;;;4.38;;
12776;SDS011;6452;41.572;23.732;2023-07-08T07:49:35;4.00;;;3.80;;
12776;SDS011;6452;41.572;23.732;2023-07-08T07:52:01;4.03;;;3.72;;
12776;SDS011;6452;41.572;23.732;2023-07-08T07:54:27;3.65;;;3.45;;
12776;SDS011;6452;41.572;23.732;2023-07-08T07:56:53;3.92;;;3.63;;
12776;SDS011;6452;41.572;23.732;2023-07-08T07:59:19;3.35;;;3.15;;
12776;SDS011;6452;41.572;23.732;2023-07-08T08:01:45;3.72;;;3.53;;
12776;SDS011;6452;41.572;23.732;2023-07-08T08:04:11;3.50;;;3.25;;
12776;SDS011;6452;41.572;23.732;2023-07-08T08:06:37;3.90;;;3.50;;
12776;SDS011;6452;41.572;23.732;2023-07-08T08:09:04;4.22;;;3.92;;
12776;SDS011;6452;41.572;23.732;2023-07-08T08:11:29;3.88;;;3.60;;
12776;SDS011;6452;41.572;23.732;2023-07-08T08:13:56;3.70;;;3.50;;
12776;SDS011;6452;41.572;23.732;2023-07-08T08:16:22;4.30;;;3.78;;
12776;SDS011;6452;41.572;23.732;2023-07-08T08:18:48;3.45;;;3.25;;
12776;SDS011;6452;41.572;23.732;2023-07-08T08:21:18;4.18;;;3.88;;
12776;SDS011;6452;41.572;23.732;2023-07-08T08:23:44;3.40;;;3.20;;
12776;SDS011;6452;41.572;23.732;2023-07-08T08:26:10;4.03;;;3.72;;
12776;SDS011;6452;41.572;23.732;2023-07-08T08:28:36;4.60;;;4.30;;
12776;SDS011;6452;41.572;23.732;2023-07-08T08:31:02;3.85;;;3.65;;
12776;SDS011;6452;41.572;23.732;2023-07-08T08:33:28;4.03;;;3.72;;
12776;SDS011;6452;41.572;23.732;2023-07-08T08:35:53;3.85;;;3.55;;
12776;SDS011;6452;41.572;23.732;2023-07-08T08:38:19;3.95;;;3.70;;
12776;SDS011;6452;41.572;23.732;2023-07-08T08:40:45;3.92;;;3.70;;
12776;SDS011;6452;41.572;23.732;2023-07-08T08:43:19;3.78;;;3.53;;
12776;SDS011;6452;41.572;23.732;2023-07-08T08:46:04;3.42;;;3.22;;
12776;SDS011;6452;41.572;23.732;2023-07-08T08:48:32;3.53;;;3.22;;
12776;SDS011;6452;41.572;23.732;2023-07-08T08:51:13;3.03;;;2.83;;
12776;SDS011;6452;41.572;23.732;2023-07-08T08:53:40;2.78;;;2.67;;
12776;SDS011;6452;41.572;23.732;2023-07-08T08:56:23;3.30;;;3.10;;
12776;SDS011;6452;41.572;23.732;2023-07-08T09:01:22;3.10;;;2.90;;
12776;SDS011;6452;41.572;23.732;2023-07-08T09:03:50;2.92;;;2.58;;
12776;SDS011;6452;41.572;23.732;2023-07-08T09:06:29;2.42;;;2.33;;
12776;SDS011;6452;41.572;23.732;2023-07-08T09:09:06;3.28;;;3.08;;
12776;SDS011;6452;41.572;23.732;2023-07-08T09:11:48;2.92;;;2.75;;
12776;SDS011;6452;41.572;23.732;2023-07-08T09:14:25;4.20;;;3.90;;
12776;SDS011;6452;41.572;23.732;2023-07-08T09:19:24;3.70;;;3.45;;
12776;SDS011;6452;41.572;23.732;2023-07-08T09:21:56;3.47;;;3.17;;
12776;SDS011;6452;41.572;23.732;2023-07-08T09:24:27;4.55;;;2.90;;
12776;SDS011;6452;41.572;23.732;2023-07-08T09:26:54;3.50;;;2.90;;
12776;SDS011;6452;41.572;23.732;2023-07-08T09:29:22;2.58;;;2.47;;
12776;SDS011;6452;41.572;23.732;2023-07-08T09:31:48;2.65;;;2.47;;
12776;SDS011;6452;41.572;23.732;2023-07-08T09:34:15;2.53;;;2.40;;
12776;SDS011;6452;41.572;23.732;2023-07-08T09:36:42;3.00;;;2.88;;
12776;SDS011;6452;41.572;23.732;2023-07-08T09:39:16;3.20;;;2.83;;
12776;SDS011;6452;41.572;23.732;2023-07-08T09:41:57;2.60;;;2.50;;
12776;SDS011;6452;41.572;23.732;2023-07-08T09:44:32;2.50;;;2.40;;
12776;SDS011;6452;41.572;23.732;2023-07-08T09:46:59;2.63;;;2.45;;
12776;SDS011;6452;41.572;23.732;2023-07-08T09:51:53;3.92;;;2.45;;
12776;SDS011;6452;41.572;23.732;2023-07-08T09:54:20;2.30;;;2.20;;
12776;SDS011;6452;41.572;23.732;2023-07-08T09:56:51;2.28;;;2.17;;
12776;SDS011;6452;41.572;23.732;2023-07-08T09:59:18;2.10;;;2.00;;
12776;SDS011;6452;41.572;23.732;2023-07-08T10:01:44;2.25;;;2.15;;
12776;SDS011;6452;41.572;23.732;2023-07-08T10:04:11;2.22;;;2.13;;
12776;SDS011;6452;41.572;23.732;2023-07-08T10:06:37;2.28;;;2.17;;
12776;SDS011;6452;41.572;23.732;2023-07-08T10:09:11;2.28;;;2.17;;
12776;SDS011;6452;41.572;23.732;2023-07-08T10:11:42;1.83;;;1.80;;
12776;SDS011;6452;41.572;23.732;2023-07-08T10:14:12;2.40;;;2.30;;
12776;SDS011;6452;41.572;23.732;2023-07-08T10:16:42;2.42;;;2.22;;
12776;SDS011;6452;41.572;23.732;2023-07-08T10:19:12;2.65;;;2.50;;
12776;SDS011;6452;41.572;23.732;2023-07-08T10:26:35;3.03;;;2.83;;
12776;SDS011;6452;41.572;23.732;2023-07-08T10:34:47;2.30;;;2.20;;
12776;SDS011;6452;41.572;23.732;2023-07-08T10:39:50;2.05;;;1.95;;
12776;SDS011;6452;41.572;23.732;2023-07-08T10:42:27;2.58;;;2.03;;
12776;SDS011;6452;41.572;23.732;2023-07-08T10:45:06;2.53;;;2.40;;
12776;SDS011;6452;41.572;23.732;2023-07-08T10:50:24;2.40;;;2.30;;
12776;SDS011;6452;41.572;23.732;2023-07-08T10:55:32;4.97;;;2.35;;
12776;SDS011;6452;41.572;23.732;2023-07-08T11:00:47;2.08;;;1.98;;
12776;SDS011;6452;41.572;23.732;2023-07-08T11:05:52;2.40;;;2.30;;
12776;SDS011;6452;41.572;23.732;2023-07-08T11:08:53;1.75;;;1.75;;
12776;SDS011;6452;41.572;23.732;2023-07-08T11:13:49;2.28;;;2.17;;
12776;SDS011;6452;41.572;23.732;2023-07-08T11:16:29;1.88;;;1.77;;
12776;SDS011;6452;41.572;23.732;2023-07-08T11:19:57;2.13;;;2.03;;
12776;SDS011;6452;41.572;23.732;2023-07-08T11:21:51;2.15;;;2.05;;
12776;SDS011;6452;41.572;23.732;2023-07-08T11:24:22;2.28;;;2.17;;
12776;SDS011;6452;41.572;23.732;2023-07-08T11:26:52;2.00;;;1.90;;
12776;SDS011;6452;41.572;23.732;2023-07-08T11:29:20;2.38;;;2.28;;
12776;SDS011;6452;41.572;23.732;2023-07-08T11:31:47;2.25;;;2.15;;
12776;SDS011;6452;41.572;23.732;2023-07-08T11:34:14;2.25;;;2.10;;
12776;SDS011;6452;41.572;23.732;2023-07-08T11:36:41;2.50;;;2.40;;
12776;SDS011;6452;41.572;23.732;2023-07-08T11:41:53;2.50;;;2.40;;
12776;SDS011;6452;41.572;23.732;2023-07-08T11:44:28;2.50;;;2.30;;
12776;SDS011;6452;41.572;23.732;2023-07-08T11:46:55;2.00;;;1.90;;
12776;SDS011;6452;41.572;23.732;2023-07-08T11:49:21;2.10;;;2.00;;
12776;SDS011;6452;41.572;23.732;2023-07-08T11:51:48;2.25;;;2.15;;
12776;SDS011;6452;41.572;23.732;2023-07-08T11:54:19;2.05;;;1.95;;
12776;SDS011;6452;41.572;23.732;2023-07-08T11:56:49;1.88;;;1.80;;
12776;SDS011;6452;41.572;23.732;2023-07-08T11:59:18;2.10;;;2.00;;
12776;SDS011;6452;41.572;23.732;2023-07-08T12:01:46;2.10;;;2.00;;
12776;SDS011;6452;41.572;23.732;2023-07-08T12:06:40;2.30;;;2.20;;
12776;SDS011;6452;41.572;23.732;2023-07-08T12:09:25;2.42;;;2.20;;
12776;SDS011;6452;41.572;23.732;2023-07-08T12:11:56;2.30;;;2.20;;
12776;SDS011;6452;41.572;23.732;2023-07-08T12:14:23;2.15;;;2.05;;
12776;SDS011;6452;41.572;23.732;2023-07-08T12:16:49;2.00;;;1.90;;
12776;SDS011;6452;41.572;23.732;2023-07-08T12:19:16;2.40;;;2.20;;
12776;SDS011;6452;41.572;23.732;2023-07-08T12:21:41;1.98;;;1.88;;
12776;SDS011;6452;41.572;23.732;2023-07-08T12:24:09;2.20;;;2.10;;
12776;SDS011;6452;41.572;23.732;2023-07-08T12:26:36;2.25;;;2.15;;
12776;SDS011;6452;41.572;23.732;2023-07-08T12:29:02;1.80;;;1.80;;
12776;SDS011;6452;41.572;23.732;2023-07-08T12:31:29;1.60;;;1.60;;
12776;SDS011;6452;41.572;23.732;2023-07-08T12:33:56;2.30;;;2.20;;
12776;SDS011;6452;41.572;23.732;2023-07-08T12:36:23;2.30;;;2.20;;
12776;SDS011;6452;41.572;23.732;2023-07-08T12:38:54;2.63;;;2.45;;
12776;SDS011;6452;41.572;23.732;2023-07-08T12:41:22;2.42;;;2.33;;
12776;SDS011;6452;41.572;23.732;2023-07-08T12:43:51;2.58;;;2.38;;
12776;SDS011;6452;41.572;23.732;2023-07-08T12:46:17;2.88;;;2.58;;
12776;SDS011;6452;41.572;23.732;2023-07-08T12:48:44;2.40;;;2.30;;
12776;SDS011;6452;41.572;23.732;2023-07-08T12:51:11;2.08;;;1.98;;
12776;SDS011;6452;41.572;23.732;2023-07-08T12:53:37;2.53;;;2.42;;
12776;SDS011;6452;41.572;23.732;2023-07-08T12:56:03;2.40;;;2.30;;
12776;SDS011;6452;41.572;23.732;2023-07-08T12:58:31;2.55;;;1.95;;
12776;SDS011;6452;41.572;23.732;2023-07-08T13:00:58;2.35;;;2.20;;
12776;SDS011;6452;41.572;23.732;2023-07-08T13:03:26;2.30;;;2.10;;
12776;SDS011;6452;41.572;23.732;2023-07-08T13:05:53;2.78;;;2.67;;
12776;SDS011;6452;41.572;23.732;2023-07-08T13:08:21;2.45;;;2.35;;
12776;SDS011;6452;41.572;23.732;2023-07-08T13:10:48;2.60;;;2.40;;
12776;SDS011;6452;41.572;23.732;2023-07-08T13:13:18;2.60;;;2.40;;
12776;SDS011;6452;41.572;23.732;2023-07-08T13:15:45;2.63;;;2.53;;
12776;SDS011;6452;41.572;23.732;2023-07-08T13:18:19;2.60;;;2.50;;
12776;SDS011;6452;41.572;23.732;2023-07-08T13:20:50;2.88;;;2.67;;
12776;SDS011;6452;41.572;23.732;2023-07-08T13:23:16;2.53;;;2.42;;
12776;SDS011;6452;41.572;23.732;2023-07-08T13:25:42;2.60;;;2.50;;
12776;SDS011;6452;41.572;23.732;2023-07-08T13:30:55;3.00;;;2.83;;
12776;SDS011;6452;41.572;23.732;2023-07-08T13:33:21;2.72;;;2.63;;
12776;SDS011;6452;41.572;23.732;2023-07-08T13:35:47;2.85;;;2.72;;
12776;SDS011;6452;41.572;23.732;2023-07-08T13:38:14;2.70;;;2.60;;
12776;SDS011;6452;41.572;23.732;2023-07-08T13:40:42;2.45;;;2.35;;
12776;SDS011;6452;41.572;23.732;2023-07-08T13:43:11;2.60;;;2.50;;
12776;SDS011;6452;41.572;23.732;2023-07-08T13:45:37;2.70;;;2.50;;
12776;SDS011;6452;41.572;23.732;2023-07-08T13:50:56;2.80;;;2.60;;
12776;SDS011;6452;41.572;23.732;2023-07-08T13:53:26;2.80;;;2.60;;
12776;SDS011;6452;41.572;23.732;2023-07-08T13:56:00;2.63;;;2.53;;
12776;SDS011;6452;41.572;23.732;2023-07-08T13:58:27;2.50;;;2.40;;
12776;SDS011;6452;41.572;23.732;2023-07-08T14:00:53;2.60;;;2.35;;
12776;SDS011;6452;41.572;23.732;2023-07-08T14:03:19;2.28;;;2.17;;
12776;SDS011;6452;41.572;23.732;2023-07-08T14:05:45;2.38;;;2.17;;
12776;SDS011;6452;41.572;23.732;2023-07-08T14:08:14;2.38;;;2.28;;
12776;SDS011;6452;41.572;23.732;2023-07-08T14:10:41;2.40;;;2.30;;
12776;SDS011;6452;41.572;23.732;2023-07-08T14:13:07;2.20;;;2.10;;
12776;SDS011;6452;41.572;23.732;2023-07-08T14:15:33;2.53;;;2.42;;
12776;SDS011;6452;41.572;23.732;2023-07-08T14:18:00;2.95;;;2.20;;
12776;SDS011;6452;41.572;23.732;2023-07-08T14:20:27;2.22;;;2.03;;
12776;SDS011;6452;41.572;23.732;2023-07-08T14:22:53;2.60;;;2.40;;
12776;SDS011;6452;41.572;23.732;2023-07-08T14:25:19;2.83;;;2.63;;
12776;SDS011;6452;41.572;23.732;2023-07-08T14:27:46;2.28;;;2.20;;
12776;SDS011;6452;41.572;23.732;2023-07-08T14:30:12;2.10;;;2.00;;
12776;SDS011;6452;41.572;23.732;2023-07-08T14:32:38;2.65;;;2.45;;
12776;SDS011;6452;41.572;23.732;2023-07-08T14:35:17;2.33;;;2.22;;
12776;SDS011;6452;41.572;23.732;2023-07-08T14:37:47;3.17;;;2.90;;
12776;SDS011;6452;41.572;23.732;2023-07-08T14:40:22;2.67;;;2.25;;
12776;SDS011;6452;41.572;23.732;2023-07-08T14:43:51;2.60;;;2.50;;
12776;SDS011;6452;41.572;23.732;2023-07-08T14:45:46;2.90;;;2.67;;
12776;SDS011;6452;41.572;23.732;2023-07-08T14:48:13;2.35;;;2.22;;
12776;SDS011;6452;41.572;23.732;2023-07-08T14:50:40;2.22;;;2.08;;
12776;SDS011;6452;41.572;23.732;2023-07-08T14:53:06;2.25;;;2.10;;
12776;SDS011;6452;41.572;23.732;2023-07-08T14:55:32;2.20;;;2.10;;
12776;SDS011;6452;41.572;23.732;2023-07-08T14:57:58;2.17;;;2.08;;
12776;SDS011;6452;41.572;23.732;2023-07-08T15:00:25;2.20;;;2.10;;
12776;SDS011;6452;41.572;23.732;2023-07-08T15:02:51;1.92;;;1.83;;
12776;SDS011;6452;41.572;23.732;2023-07-08T15:05:18;2.40;;;2.30;;
12776;SDS011;6452;41.572;23.732;2023-07-08T15:07:48;2.33;;;2.22;;
12776;SDS011;6452;41.572;23.732;2023-07-08T15:10:15;2.08;;;1.98;;
12776;SDS011;6452;41.572;23.732;2023-07-08T15:12:40;2.10;;;2.00;;
12776;SDS011;6452;41.572;23.732;2023-07-08T15:15:13;2.38;;;2.20;;
12776;SDS011;6452;41.572;23.732;2023-07-08T15:17:40;2.03;;;1.92;;
12776;SDS011;6452;41.572;23.732;2023-07-08T15:20:08;2.17;;;2.05;;
12776;SDS011;6452;41.572;23.732;2023-07-08T15:22:34;2.28;;;2.10;;
12776;SDS011;6452;41.572;23.732;2023-07-08T15:25:01;2.15;;;2.05;;
12776;SDS011;6452;41.572;23.732;2023-07-08T15:27:27;2.13;;;2.03;;
12776;SDS011;6452;41.572;23.732;2023-07-08T15:29:53;2.63;;;2.40;;
12776;SDS011;6452;41.572;23.732;2023-07-08T15:32:20;2.28;;;2.17;;
12776;SDS011;6452;41.572;23.732;2023-07-08T15:34:46;1.95;;;1.85;;
12776;SDS011;6452;41.572;23.732;2023-07-08T15:37:12;2.35;;;2.25;;
12776;SDS011;6452;41.572;23.732;2023-07-08T15:39:38;1.80;;;1.70;;